createdAt,value
2023-01-26T10:06:41.510Z,3.19
2023-01-26T10:09:33.233Z,3.46
2023-01-26T10:12:31.136Z,3.58
2023-01-26T10:15:38.973Z,3.74
2023-01-26T10:38:51.757Z,3.57
2023-01-26T10:41:27.448Z,3.73
2023-01-26T10:44:23.313Z,3.92
2023-01-26T10:47:21.378Z,3.97
2023-01-26T10:49:49.371Z,4.12
2023-01-26T10:52:27.834Z,3.94
2023-01-26T10:55:21.567Z,4.31
2023-01-26T10:57:49.176Z,4.07
2023-01-26T11:00:36.509Z,3.99
2023-01-26T11:03:19.930Z,4.07
2023-01-26T11:06:04.837Z,4.20
2023-01-26T11:08:39.759Z,4.21
2023-01-26T11:11:23.815Z,4.37
2023-01-26T11:14:18.802Z,4.33
2023-01-26T11:17:25.252Z,4.21
2023-01-26T11:20:46.785Z,4.07
2023-01-26T11:24:10.190Z,4.01
2023-01-26T11:27:18.176Z,4.44
2023-01-26T11:31:16.311Z,4.24
2023-01-26T11:35:01.578Z,4.24
2023-01-26T11:38:22.711Z,4.26
2023-01-26T11:41:51.521Z,4.18
2023-01-26T11:45:16.924Z,4.15
2023-01-26T11:48:42.924Z,4.22
2023-01-26T11:51:56.192Z,4.26
2023-01-26T11:55:02.880Z,4.40
2023-01-26T11:57:59.743Z,4.12
2023-01-26T12:00:48.893Z,4.18
2023-01-26T12:03:41.079Z,4.19
2023-01-26T12:06:26.992Z,4.39
2023-01-26T12:09:23.123Z,4.49
2023-01-26T12:56:42.510Z,4.20
2023-01-26T12:59:46.475Z,4.26
2023-01-26T13:02:30.510Z,4.06
2023-01-26T13:05:04.194Z,4.19
2023-01-26T13:07:40.445Z,4.11
2023-01-26T13:10:18.028Z,4.23
2023-01-26T13:13:29.883Z,4.14
2023-01-26T13:16:17.275Z,4.11
2023-01-26T13:19:03.205Z,4.17
2023-01-26T13:21:39.259Z,4.50
2023-01-26T13:24:18.706Z,4.21
2023-01-26T13:27:44.119Z,4.06
2023-01-26T13:30:29.545Z,3.99
